Time;durP1;ratioP1;P1;durP2;ratioP2;P2;SDS_P1;SDS_P2;PMS_P1;PMS_P2;Temp;Humidity;BMP_temperature;BMP_pressure;BME280_temperature;BME280_humidity;BME280_pressure;Samples;Min_cycle;Max_cycle;Signal;HPM_P1;HPM_P2
2023/12/26 00:01:48;;;;;;;1.50;0.80;;;12.10;1.00;;;;;;6274897;22;20549;-84
2023/12/26 00:04:15;;;;;;;1.00;0.70;;;12.10;1.00;;;;;;6249132;22;20251;-83
2023/12/26 00:06:43;;;;;;;1.07;0.80;;;12.10;1.00;;;;;;6247700;22;20165;-83
2023/12/26 00:09:12;;;;;;;1.20;0.80;;;12.00;1.00;;;;;;6275552;22;20375;-83
2023/12/26 00:11:45;;;;;;;1.53;0.70;;;12.00;1.00;;;;;;6247633;22;20490;-82
2023/12/26 00:14:12;;;;;;;1.40;1.10;;;11.90;1.00;;;;;;6274922;22;20417;-83
2023/12/26 00:16:39;;;;;;;1.60;1.00;;;11.90;1.00;;;;;;6275300;22;20371;-83
2023/12/26 00:19:05;;;;;;;1.30;0.87;;;11.90;1.00;;;;;;6275228;22;20371;-83
2023/12/26 00:21:30;;;;;;;1.30;0.97;;;11.80;1.00;;;;;;6275617;22;20457;-83
2023/12/26 00:23:56;;;;;;;1.10;1.00;;;11.80;1.00;;;;;;6248750;22;20365;-83
2023/12/26 00:26:22;;;;;;;1.63;0.90;;;11.80;1.00;;;;;;6280927;22;20153;-84
2023/12/26 00:28:47;;;;;;;2.23;0.97;;;11.80;1.00;;;;;;6285764;22;20152;-85
2023/12/26 00:31:13;;;;;;;2.23;0.80;;;11.80;1.00;;;;;;6286403;22;20585;-84
2023/12/26 00:33:38;;;;;;;1.60;1.00;;;11.80;1.00;;;;;;6257648;22;20238;-84
2023/12/26 00:36:04;;;;;;;1.53;1.03;;;11.80;1.00;;;;;;6258328;22;20239;-84
2023/12/26 00:38:30;;;;;;;3.20;0.80;;;11.80;1.00;;;;;;6284966;22;20157;-83
2023/12/26 00:40:55;;;;;;;1.27;0.97;;;11.90;1.00;;;;;;6285214;22;20410;-84
2023/12/26 00:43:21;;;;;;;2.03;0.70;;;11.80;1.00;;;;;;6283974;22;20153;-84
2023/12/26 00:45:46;;;;;;;1.20;0.90;;;11.80;1.00;;;;;;6285172;22;20501;-84
2023/12/26 00:48:12;;;;;;;1.10;0.73;;;11.80;1.00;;;;;;6283650;22;20212;-84
2023/12/26 00:50:41;;;;;;;2.13;1.00;;;11.80;1.00;;;;;;6284517;22;20168;-84
2023/12/26 00:53:08;;;;;;;1.10;0.80;;;11.80;1.00;;;;;;6282501;22;20380;-83
2023/12/26 00:55:34;;;;;;;4.77;1.17;;;11.80;1.00;;;;;;6282622;22;20453;-83
2023/12/26 00:58:00;;;;;;;4.80;1.40;;;11.80;1.00;;;;;;6281155;22;20375;-83
2023/12/26 01:00:25;;;;;;;1.77;0.97;;;11.80;1.00;;;;;;6281629;22;20930;-84
2023/12/26 01:02:51;;;;;;;3.63;0.90;;;11.80;1.00;;;;;;6282238;22;20149;-83
2023/12/26 01:05:17;;;;;;;2.37;0.87;;;11.70;1.00;;;;;;6281717;22;20170;-82
2023/12/26 01:07:42;;;;;;;1.30;0.90;;;11.70;1.00;;;;;;6253614;22;20164;-84
2023/12/26 01:10:08;;;;;;;2.47;1.20;;;11.70;1.00;;;;;;6279757;22;20251;-84
2023/12/26 01:12:33;;;;;;;1.40;0.97;;;11.70;1.00;;;;;;6251492;22;20183;-83
2023/12/26 01:14:59;;;;;;;3.23;1.03;;;11.70;1.00;;;;;;6277454;22;20260;-82
2023/12/26 01:17:25;;;;;;;2.30;0.73;;;11.70;1.00;;;;;;6277325;22;20486;-83
2023/12/26 01:19:50;;;;;;;2.40;1.00;;;11.70;1.00;;;;;;6276437;22;20194;-84
2023/12/26 01:22:17;;;;;;;3.90;0.87;;;11.70;1.00;;;;;;6249270;22;20144;-85
2023/12/26 01:24:43;;;;;;;1.97;0.80;;;11.60;1.00;;;;;;6277338;22;20155;-83
2023/12/26 01:27:08;;;;;;;1.63;0.87;;;11.60;1.00;;;;;;6278190;22;20375;-83
2023/12/26 01:29:34;;;;;;;1.30;1.00;;;11.60;1.00;;;;;;6277696;22;20912;-83
2023/12/26 01:31:59;;;;;;;1.50;1.07;;;11.50;1.00;;;;;;6277495;22;20636;-83
2023/12/26 01:34:25;;;;;;;4.13;1.00;;;11.50;1.00;;;;;;6278251;22;20180;-83
2023/12/26 01:36:50;;;;;;;3.40;1.30;;;11.50;1.00;;;;;;6277599;22;20152;-83
2023/12/26 01:39:16;;;;;;;2.70;0.90;;;11.50;1.00;;;;;;6277303;22;20172;-83
2023/12/26 01:41:42;;;;;;;4.03;1.20;;;11.40;1.00;;;;;;6250123;22;20176;-83
2023/12/26 01:44:07;;;;;;;3.30;1.23;;;11.30;1.00;;;;;;6277909;22;20153;-83
2023/12/26 01:46:34;;;;;;;2.40;1.00;;;11.30;1.00;;;;;;6278684;22;20152;-83
2023/12/26 01:49:00;;;;;;;2.57;1.77;;;11.20;1.00;;;;;;6277774;22;20152;-83
2023/12/26 01:51:29;;;;;;;2.70;1.33;;;11.20;1.00;;;;;;6277788;22;20398;-83
2023/12/26 01:53:55;;;;;;;4.20;0.90;;;11.10;1.00;;;;;;6277845;22;20411;-83
2023/12/26 01:56:22;;;;;;;5.00;1.20;;;11.10;1.00;;;;;;6279423;22;20747;-83
2023/12/26 01:58:49;;;;;;;2.03;1.30;;;11.00;1.00;;;;;;6284858;22;20382;-84
2023/12/26 02:01:15;;;;;;;3.40;1.30;;;11.00;1.00;;;;;;6256440;22;20419;-84
2023/12/26 02:03:42;;;;;;;1.53;1.10;;;10.90;1.70;;;;;;6283333;22;20863;-84
2023/12/26 02:06:08;;;;;;;3.43;1.37;;;10.90;7.90;;;;;;6283246;22;20380;-84
2023/12/26 02:08:35;;;;;;;1.63;1.33;;;10.90;13.00;;;;;;6283510;22;20379;-84
2023/12/26 02:11:02;;;;;;;2.50;1.30;;;10.90;18.70;;;;;;6283320;22;20482;-84
2023/12/26 02:13:28;;;;;;;4.10;1.43;;;10.80;22.50;;;;;;6285412;22;20418;-83
2023/12/26 02:15:56;;;;;;;1.97;1.70;;;10.80;28.70;;;;;;6285998;22;20375;-84
2023/12/26 02:18:21;;;;;;;1.93;1.40;;;10.80;33.20;;;;;;6286337;22;20724;-84
2023/12/26 02:20:47;;;;;;;2.97;1.53;;;10.70;39.10;;;;;;6256955;22;20406;-84
2023/12/26 02:23:12;;;;;;;4.03;1.53;;;10.70;43.00;;;;;;6287170;22;20149;-84
2023/12/26 02:25:40;;;;;;;2.77;1.60;;;10.70;45.70;;;;;;6289041;22;20656;-84
2023/12/26 02:28:07;;;;;;;2.30;1.70;;;10.70;48.10;;;;;;6289467;22;20141;-84
2023/12/26 02:30:35;;;;;;;2.30;1.07;;;10.70;49.20;;;;;;6289525;22;20402;-85
2023/12/26 02:33:02;;;;;;;2.97;1.50;;;10.70;48.10;;;;;;6291275;22;20367;-83
2023/12/26 02:35:28;;;;;;;2.90;1.30;;;10.70;48.60;;;;;;6290704;22;20375;-84
2023/12/26 02:37:54;;;;;;;2.97;1.30;;;10.70;47.40;;;;;;6291360;22;20364;-84
2023/12/26 02:40:20;;;;;;;7.20;1.60;;;10.70;47.10;;;;;;6286157;22;20831;-83
2023/12/26 02:42:45;;;;;;;4.80;1.60;;;10.70;47.40;;;;;;6288532;22;20387;-83
2023/12/26 02:45:11;;;;;;;3.40;1.60;;;10.70;46.40;;;;;;6250583;22;20164;-83
2023/12/26 02:47:37;;;;;;;3.10;1.60;;;10.70;44.40;;;;;;6274003;22;20211;-83
2023/12/26 02:50:03;;;;;;;2.27;1.50;;;10.60;47.40;;;;;;6273515;22;20180;-83
2023/12/26 02:52:28;;;;;;;1.70;1.50;;;10.70;47.20;;;;;;6274594;22;20152;-83
2023/12/26 02:54:54;;;;;;;4.73;1.60;;;10.70;47.70;;;;;;6274972;22;20419;-83
2023/12/26 02:57:19;;;;;;;3.23;1.57;;;10.70;49.30;;;;;;6273907;22;20148;-83
2023/12/26 02:59:45;;;;;;;3.23;1.70;;;10.60;44.70;;;;;;6228115;22;1048524;-83
2023/12/26 03:02:10;;;;;;;2.50;1.57;;;10.70;43.90;;;;;;6276039;22;20147;-83
2023/12/26 03:04:36;;;;;;;3.87;1.77;;;10.70;44.50;;;;;;6276159;22;20206;-83
2023/12/26 03:07:01;;;;;;;2.43;2.23;;;10.60;43.30;;;;;;6276381;22;20228;-83
2023/12/26 03:09:27;;;;;;;2.03;1.40;;;10.70;43.40;;;;;;6276316;22;20235;-83
2023/12/26 03:11:53;;;;;;;4.80;1.90;;;10.70;47.30;;;;;;6275538;22;20198;-83
2023/12/26 03:14:18;;;;;;;3.33;1.70;;;10.70;41.60;;;;;;6275627;22;20672;-83
2023/12/26 03:16:44;;;;;;;2.60;1.97;;;10.70;40.80;;;;;;6276142;22;20167;-84
2023/12/26 03:19:09;;;;;;;3.73;1.90;;;10.70;39.80;;;;;;6275609;22;20687;-82
2023/12/26 03:21:35;;;;;;;2.90;1.60;;;10.60;38.00;;;;;;6275990;22;20169;-83
2023/12/26 03:24:00;;;;;;;1.90;1.63;;;10.60;36.00;;;;;;6276666;22;20157;-82
2023/12/26 03:26:26;;;;;;;3.27;2.20;;;10.70;34.40;;;;;;6274298;22;20188;-83
2023/12/26 03:28:52;;;;;;;2.27;1.40;;;10.70;33.60;;;;;;6276958;22;20169;-83
2023/12/26 03:31:17;;;;;;;3.37;1.90;;;10.70;32.40;;;;;;6284620;22;20179;-83
2023/12/26 03:33:43;;;;;;;5.60;2.00;;;10.70;33.00;;;;;;6287585;22;20260;-84
2023/12/26 03:36:08;;;;;;;9.77;2.30;;;10.70;29.30;;;;;;6261242;22;20148;-84
2023/12/26 03:38:36;;;;;;;2.53;1.87;;;10.70;32.20;;;;;;6286324;22;20195;-82
2023/12/26 03:41:02;;;;;;;4.80;2.07;;;10.70;34.30;;;;;;6287463;22;20165;-83
2023/12/26 03:43:27;;;;;;;5.20;2.20;;;10.70;34.80;;;;;;6287098;22;20371;-85
2023/12/26 03:45:53;;;;;;;2.53;2.00;;;10.70;37.10;;;;;;6287875;22;20572;-84
2023/12/26 03:48:18;;;;;;;6.80;2.00;;;10.70;36.70;;;;;;6287149;22;20160;-83
2023/12/26 03:50:44;;;;;;;4.13;2.10;;;10.70;36.30;;;;;;6287799;22;20219;-84
2023/12/26 03:53:09;;;;;;;4.90;2.07;;;10.70;40.60;;;;;;6287018;22;20175;-84
2023/12/26 03:55:35;;;;;;;6.10;2.10;;;10.70;43.20;;;;;;6259366;22;20613;-83
2023/12/26 03:58:01;;;;;;;4.57;2.13;;;10.70;44.70;;;;;;6286856;22;20231;-84
2023/12/26 04:00:29;;;;;;;5.30;2.40;;;10.60;51.40;;;;;;6288455;22;20189;-84
2023/12/26 04:02:55;;;;;;;3.53;2.17;;;10.60;53.90;;;;;;6261044;22;20180;-84
2023/12/26 04:05:21;;;;;;;5.37;2.20;;;10.60;56.40;;;;;;6288333;22;20411;-84
2023/12/26 04:07:48;;;;;;;2.87;2.50;;;10.60;58.70;;;;;;6287775;22;20390;-84
2023/12/26 04:10:13;;;;;;;2.87;2.40;;;10.60;58.60;;;;;;6286785;22;20255;-84
2023/12/26 04:12:40;;;;;;;4.60;2.37;;;10.60;60.80;;;;;;6286692;22;20866;-84
2023/12/26 04:15:06;;;;;;;5.33;2.40;;;10.60;61.80;;;;;;6285007;22;20626;-84
2023/12/26 04:17:32;;;;;;;7.40;2.50;;;10.60;62.70;;;;;;6276243;22;20378;-84
2023/12/26 04:19:58;;;;;;;7.03;2.60;;;10.60;65.90;;;;;;6275094;22;20392;-83
2023/12/26 04:22:24;;;;;;;4.20;2.77;;;10.60;69.70;;;;;;6275809;22;20375;-83
2023/12/26 04:24:49;;;;;;;6.53;2.97;;;10.60;73.40;;;;;;6274636;22;20658;-83
2023/12/26 04:27:15;;;;;;;6.90;2.90;;;10.60;71.40;;;;;;6275452;22;21066;-83
2023/12/26 04:29:40;;;;;;;6.03;2.63;;;10.60;69.20;;;;;;6274960;22;20209;-83
2023/12/26 04:32:06;;;;;;;7.40;2.90;;;10.60;61.70;;;;;;6275019;22;20181;-83
2023/12/26 04:34:32;;;;;;;5.73;2.43;;;10.60;55.90;;;;;;6274474;22;20191;-83
2023/12/26 04:36:57;;;;;;;5.10;2.80;;;10.70;52.80;;;;;;6275171;22;20899;-83
2023/12/26 04:39:23;;;;;;;7.70;3.67;;;10.70;46.10;;;;;;6274860;22;20149;-82
2023/12/26 04:41:49;;;;;;;3.40;2.30;;;10.70;44.00;;;;;;6275390;22;20214;-82
2023/12/26 04:44:14;;;;;;;4.50;2.60;;;10.70;41.50;;;;;;6273812;22;20691;-84
2023/12/26 04:46:40;;;;;;;5.60;2.27;;;10.70;44.40;;;;;;6275132;22;20148;-82
2023/12/26 04:49:05;;;;;;;4.43;2.00;;;10.70;46.20;;;;;;6247632;22;20172;-83
2023/12/26 04:51:31;;;;;;;9.03;2.60;;;10.70;47.40;;;;;;6273859;22;20185;-83
2023/12/26 04:53:57;;;;;;;6.53;1.43;;;10.70;45.90;;;;;;6275286;22;20226;-83
2023/12/26 04:56:23;;;;;;;6.30;2.00;;;10.70;44.90;;;;;;6275199;22;20149;-83
2023/12/26 04:58:51;;;;;;;4.00;1.63;;;10.70;44.80;;;;;;6275341;22;20153;-83
2023/12/26 05:01:17;;;;;;;5.87;2.07;;;10.70;43.70;;;;;;6275464;22;20415;-83
2023/12/26 05:03:44;;;;;;;3.57;1.30;;;10.70;42.90;;;;;;6285876;22;20387;-84
2023/12/26 05:06:10;;;;;;;4.57;1.50;;;10.70;37.20;;;;;;6286019;22;20379;-84
2023/12/26 05:08:40;;;;;;;7.00;1.97;;;10.70;33.60;;;;;;6285892;22;20391;-85
2023/12/26 05:11:06;;;;;;;5.40;1.40;;;10.70;32.60;;;;;;6259177;22;20518;-84
2023/12/26 05:13:33;;;;;;;3.50;2.03;;;10.70;27.20;;;;;;6258016;22;20423;-85
2023/12/26 05:16:08;;;;;;;3.77;1.63;;;10.70;24.50;;;;;;6258298;22;20379;-84
2023/12/26 05:18:34;;;;;;;5.10;1.80;;;10.70;22.80;;;;;;6258255;22;20473;-84
2023/12/26 05:21:00;;;;;;;2.17;1.50;;;10.70;21.80;;;;;;6258670;22;20404;-84
2023/12/26 05:23:25;;;;;;;6.00;2.10;;;10.70;21.90;;;;;;6257493;22;20153;-83
2023/12/26 05:25:51;;;;;;;2.90;1.37;;;10.70;20.70;;;;;;6284630;22;20390;-84
2023/12/26 05:28:16;;;;;;;2.97;1.87;;;10.60;20.70;;;;;;6285004;22;20156;-84
2023/12/26 05:30:42;;;;;;;6.70;2.10;;;10.60;20.10;;;;;;6283858;22;20557;-84
2023/12/26 05:33:08;;;;;;;4.70;2.27;;;10.70;20.30;;;;;;6284969;22;20145;-84
2023/12/26 05:35:34;;;;;;;4.73;1.83;;;10.70;16.30;;;;;;6283273;22;20197;-83
2023/12/26 05:38:00;;;;;;;3.10;1.23;;;10.70;13.90;;;;;;6283768;22;20687;-84
2023/12/26 05:40:26;;;;;;;5.10;1.70;;;10.70;8.40;;;;;;6286648;22;20224;-83
2023/12/26 05:42:52;;;;;;;4.27;1.70;;;10.70;2.30;;;;;;6286113;22;20374;-85
2023/12/26 05:45:17;;;;;;;3.30;1.40;;;10.60;1.00;;;;;;6286500;22;20149;-82
2023/12/26 05:47:43;;;;;;;5.27;1.43;;;10.70;1.00;;;;;;6283105;22;20164;-83
2023/12/26 05:50:09;;;;;;;2.13;1.30;;;10.60;1.00;;;;;;6248807;22;20542;-83
2023/12/26 05:52:35;;;;;;;3.43;1.63;;;10.60;1.00;;;;;;6275650;22;20375;-83
2023/12/26 05:55:00;;;;;;;4.07;1.30;;;10.60;1.00;;;;;;6275828;22;20877;-83
2023/12/26 05:57:26;;;;;;;5.10;2.10;;;10.60;1.00;;;;;;6277215;22;20194;-83
2023/12/26 05:59:52;;;;;;;2.90;1.47;;;10.60;1.00;;;;;;6277734;22;20210;-83
2023/12/26 06:02:18;;;;;;;4.03;1.30;;;10.60;1.00;;;;;;6277159;22;20140;-82
2023/12/26 06:04:44;;;;;;;3.90;1.70;;;10.60;1.00;;;;;;6276781;22;20367;-83
2023/12/26 06:07:09;;;;;;;3.63;1.73;;;10.60;1.00;;;;;;6250253;22;20152;-83
2023/12/26 06:09:35;;;;;;;4.03;1.43;;;10.60;1.00;;;;;;6276293;22;20940;-83
2023/12/26 06:12:00;;;;;;;1.93;1.53;;;10.60;1.00;;;;;;6277041;22;20506;-81
2023/12/26 06:14:26;;;;;;;3.33;1.80;;;10.60;1.00;;;;;;6276657;22;20497;-83
2023/12/26 06:16:51;;;;;;;6.10;1.57;;;10.50;1.00;;;;;;6276704;22;20471;-82
2023/12/26 06:19:17;;;;;;;1.67;1.40;;;10.60;1.00;;;;;;6275856;22;20160;-84
2023/12/26 06:21:43;;;;;;;2.13;1.40;;;10.50;1.00;;;;;;6276998;22;20785;-83
2023/12/26 06:24:09;;;;;;;6.10;1.43;;;10.50;1.00;;;;;;6248711;22;20422;-81
2023/12/26 06:26:34;;;;;;;7.90;1.97;;;10.50;1.00;;;;;;6276578;22;20149;-83
2023/12/26 06:29:00;;;;;;;5.20;1.40;;;10.50;1.00;;;;;;6275964;22;20399;-83
2023/12/26 06:31:25;;;;;;;2.83;1.73;;;10.50;1.00;;;;;;6249474;22;20710;-83
2023/12/26 06:33:51;;;;;;;4.63;1.30;;;10.50;1.00;;;;;;6280134;22;20172;-83
2023/12/26 06:36:17;;;;;;;2.50;1.30;;;10.50;1.00;;;;;;6289190;22;20145;-84
2023/12/26 06:38:43;;;;;;;4.70;1.80;;;10.50;1.00;;;;;;6287606;22;20160;-84
2023/12/26 06:41:10;;;;;;;3.20;1.57;;;10.50;1.00;;;;;;6288599;22;20667;-83
2023/12/26 06:43:36;;;;;;;5.30;1.50;;;10.50;1.00;;;;;;6287584;22;20456;-84
2023/12/26 06:46:04;;;;;;;7.37;2.00;;;10.50;1.00;;;;;;6261182;22;20383;-83
2023/12/26 06:48:29;;;;;;;3.73;1.50;;;10.50;1.00;;;;;;6286721;22;20240;-84
2023/12/26 06:50:55;;;;;;;4.87;3.10;;;10.50;1.00;;;;;;6288850;22;20387;-84
2023/12/26 06:53:20;;;;;;;3.93;1.83;;;10.50;1.00;;;;;;6261072;22;20156;-83
2023/12/26 06:55:46;;;;;;;2.97;1.80;;;10.50;1.00;;;;;;6288955;22;20183;-84
2023/12/26 06:58:11;;;;;;;5.27;2.33;;;10.60;1.00;;;;;;6286689;22;20160;-83
2023/12/26 07:00:37;;;;;;;4.60;1.70;;;10.60;1.00;;;;;;6286959;22;20180;-84
2023/12/26 07:03:03;;;;;;;5.13;1.93;;;10.60;1.00;;;;;;6286569;22;20156;-84
2023/12/26 07:05:29;;;;;;;5.63;2.00;;;10.60;1.00;;;;;;6289116;22;20164;-84
2023/12/26 07:07:54;;;;;;;4.87;2.13;;;10.60;1.00;;;;;;6288126;22;20380;-84
2023/12/26 07:10:20;;;;;;;3.60;2.20;;;10.60;1.00;;;;;;6289086;22;20654;-84
2023/12/26 07:12:45;;;;;;;7.07;2.53;;;10.70;1.00;;;;;;6289015;22;20180;-85
2023/12/26 07:15:11;;;;;;;2.83;1.90;;;10.70;1.00;;;;;;6287914;22;20245;-84
2023/12/26 07:17:37;;;;;;;4.70;2.43;;;10.70;1.00;;;;;;6286207;22;20160;-83
2023/12/26 07:20:02;;;;;;;11.47;2.83;;;10.70;1.00;;;;;;6281543;22;20180;-82
2023/12/26 07:22:28;;;;;;;7.53;2.70;;;10.70;1.00;;;;;;6275679;22;20149;-81
2023/12/26 07:24:53;;;;;;;5.00;2.47;;;10.70;1.00;;;;;;6276370;22;20157;-83
2023/12/26 07:27:19;;;;;;;7.50;2.30;;;10.70;1.00;;;;;;6275616;22;20593;-83
2023/12/26 07:29:44;;;;;;;3.67;2.20;;;10.70;1.00;;;;;;6275926;22;20648;-83
2023/12/26 07:32:10;;;;;;;6.07;2.13;;;10.70;1.00;;;;;;6275993;22;20628;-80
2023/12/26 07:34:35;;;;;;;11.00;2.17;;;10.70;1.00;;;;;;6276329;22;20515;-82
2023/12/26 07:37:01;;;;;;;4.63;2.40;;;10.90;1.00;;;;;;6275436;22;20206;-82
2023/12/26 07:39:27;;;;;;;5.40;2.67;;;10.90;1.00;;;;;;6276441;22;20227;-82
2023/12/26 07:41:52;;;;;;;5.70;2.60;;;10.90;1.00;;;;;;6276829;22;20682;-82
2023/12/26 07:44:18;;;;;;;5.90;2.60;;;10.90;1.00;;;;;;6276307;22;20429;-82
2023/12/26 07:46:43;;;;;;;9.00;3.10;;;10.90;1.00;;;;;;6275962;22;20176;-83
2023/12/26 07:49:09;;;;;;;5.60;2.93;;;10.90;1.00;;;;;;6275141;22;20168;-83
2023/12/26 07:51:35;;;;;;;10.70;2.80;;;10.90;1.00;;;;;;6275240;22;20183;-83
2023/12/26 07:54:00;;;;;;;9.53;3.17;;;10.80;1.00;;;;;;6274923;22;20177;-83
2023/12/26 07:56:26;;;;;;;8.97;2.50;;;10.80;1.00;;;;;;6276391;22;20648;-82
2023/12/26 07:58:52;;;;;;;5.70;2.90;;;10.80;1.00;;;;;;6275586;22;20145;-82
2023/12/26 08:01:18;;;;;;;9.40;2.80;;;10.80;1.00;;;;;;6278133;22;20407;-82
2023/12/26 08:03:44;;;;;;;6.80;2.70;;;10.80;1.00;;;;;;6283780;22;20380;-83
2023/12/26 08:06:10;;;;;;;7.93;2.93;;;10.80;1.00;;;;;;6288254;22;20450;-83
2023/12/26 08:08:35;;;;;;;4.83;2.73;;;10.80;1.00;;;;;;6286177;22;20529;-83
2023/12/26 08:11:01;;;;;;;10.23;2.70;;;10.80;1.00;;;;;;6283980;22;20173;-84
2023/12/26 08:13:26;;;;;;;6.57;2.23;;;10.80;1.00;;;;;;6281011;22;20157;-83
2023/12/26 08:15:52;;;;;;;7.70;3.10;;;10.80;1.00;;;;;;6284999;22;20183;-83
2023/12/26 08:18:17;;;;;;;5.27;2.37;;;10.80;1.00;;;;;;6286342;22;20447;-82
2023/12/26 08:20:43;;;;;;;11.43;3.20;;;10.80;1.00;;;;;;6285509;22;20169;-82
2023/12/26 08:23:08;;;;;;;4.33;2.90;;;10.80;1.00;;;;;;6260026;22;20718;-83
2023/12/26 08:25:34;;;;;;;10.17;3.57;;;10.80;1.00;;;;;;6286986;22;20148;-82
2023/12/26 08:28:01;;;;;;;9.20;3.70;;;10.80;1.00;;;;;;6284083;22;20179;-82
2023/12/26 08:30:26;;;;;;;13.87;4.03;;;10.80;1.00;;;;;;6280707;22;20462;-83
2023/12/26 08:32:52;;;;;;;8.87;3.03;;;10.80;1.00;;;;;;6283638;22;20375;-83
2023/12/26 08:35:17;;;;;;;5.33;2.93;;;10.90;1.00;;;;;;6283358;22;20188;-84
2023/12/26 08:37:43;;;;;;;10.13;4.33;;;10.90;1.00;;;;;;6283904;22;20145;-82
2023/12/26 08:40:08;;;;;;;8.50;3.70;;;10.90;1.00;;;;;;6283866;22;20165;-84
2023/12/26 08:42:34;;;;;;;9.10;3.30;;;10.90;1.00;;;;;;6280098;22;20153;-82
2023/12/26 08:44:59;;;;;;;7.57;3.37;;;11.00;1.00;;;;;;6280606;22;20148;-83
2023/12/26 08:47:25;;;;;;;7.10;2.73;;;11.00;1.00;;;;;;6276692;22;20160;-82
2023/12/26 08:49:50;;;;;;;10.20;3.20;;;11.10;1.00;;;;;;6277169;22;20223;-81
2023/12/26 08:52:16;;;;;;;9.73;3.17;;;11.30;1.00;;;;;;6275787;22;20153;-82
2023/12/26 08:54:43;;;;;;;8.60;3.43;;;11.40;1.00;;;;;;6273926;22;20180;-82
2023/12/26 08:57:08;;;;;;;10.33;3.40;;;11.40;1.00;;;;;;6274592;22;20153;-83
2023/12/26 08:59:34;;;;;;;8.97;3.40;;;11.50;1.00;;;;;;6274612;22;20394;-82
2023/12/26 09:01:59;;;;;;;10.63;3.07;;;11.60;1.00;;;;;;6247750;22;20644;-82
2023/12/26 09:04:26;;;;;;;10.87;2.87;;;11.60;1.00;;;;;;6272864;22;20167;-81
2023/12/26 09:06:55;;;;;;;6.33;3.23;;;11.60;1.00;;;;;;6247281;22;20160;-82
2023/12/26 09:09:20;;;;;;;8.83;3.63;;;11.70;1.00;;;;;;6274230;22;20477;-82
2023/12/26 09:11:46;;;;;;;9.63;3.30;;;11.60;1.00;;;;;;6274196;22;20399;-82
2023/12/26 09:14:13;;;;;;;8.60;3.00;;;11.60;1.00;;;;;;6272583;22;20176;-82
2023/12/26 09:16:39;;;;;;;9.13;3.23;;;11.60;1.00;;;;;;6274019;22;20144;-82
2023/12/26 09:19:05;;;;;;;6.93;3.43;;;11.60;1.00;;;;;;6246875;22;20449;-82
2023/12/26 09:21:30;;;;;;;4.57;2.90;;;11.70;99.90;;;;;;6276595;22;20790;-82
2023/12/26 09:23:56;;;;;;;7.97;2.87;;;11.80;99.90;;;;;;6274757;22;20679;-81
2023/12/26 09:26:22;;;;;;;4.90;2.97;;;11.90;99.90;;;;;;6274294;22;20600;-82
2023/12/26 09:28:48;;;;;;;8.17;2.50;;;11.90;99.90;;;;;;6274073;22;20469;-82
2023/12/26 09:31:14;;;;;;;8.90;3.10;;;11.90;99.90;;;;;;6277455;22;20395;-82
2023/12/26 09:33:39;;;;;;;11.73;4.77;;;12.10;1.00;;;;;;6251885;22;20420;-83
2023/12/26 09:36:05;;;;;;;7.53;2.40;;;12.50;1.00;;;;;;6276579;22;20152;-82
2023/12/26 09:38:30;;;;;;;6.90;2.50;;;12.60;1.00;;;;;;6281973;22;20156;-83
2023/12/26 09:40:56;;;;;;;6.80;2.30;;;12.80;1.00;;;;;;6282407;22;20173;-83
2023/12/26 09:43:22;;;;;;;5.80;2.73;;;13.00;1.00;;;;;;6281873;22;20151;-83
2023/12/26 09:45:48;;;;;;;6.33;2.27;;;13.20;1.00;;;;;;6255289;22;20379;-82
2023/12/26 09:48:14;;;;;;;3.97;1.97;;;13.20;59.40;;;;;;6282442;22;20153;-83
2023/12/26 09:50:39;;;;;;;5.13;2.93;;;13.10;1.00;;;;;;6282528;22;20629;-81
2023/12/26 09:53:08;;;;;;;4.73;2.17;;;13.00;1.00;;;;;;6254473;22;20391;-83
2023/12/26 09:55:33;;;;;;;10.13;2.70;;;12.90;99.90;;;;;;6280663;22;20172;-84
2023/12/26 09:57:59;;;;;;;13.13;2.30;;;12.70;99.90;;;;;;6279774;22;20871;-83
2023/12/26 10:00:29;;;;;;;5.57;1.80;;;12.70;99.90;;;;;;6282022;22;20208;-84
2023/12/26 10:02:55;;;;;;;8.03;1.97;;;12.70;99.90;;;;;;6281110;22;20149;-83
2023/12/26 10:05:21;;;;;;;10.57;2.10;;;12.80;1.00;;;;;;6281660;22;20429;-84
2023/12/26 10:07:47;;;;;;;6.30;1.60;;;12.80;1.00;;;;;;6281555;22;20376;-84
2023/12/26 10:10:19;;;;;;;7.40;2.43;;;12.70;1.00;;;;;;6282547;22;20478;-84
2023/12/26 10:12:46;;;;;;;8.00;2.13;;;12.70;1.00;;;;;;6283043;22;20140;-84
2023/12/26 10:15:12;;;;;;;7.47;2.30;;;12.70;1.00;;;;;;6280541;22;20499;-83
2023/12/26 10:17:39;;;;;;;6.20;2.10;;;12.60;1.00;;;;;;6281617;22;20372;-83
2023/12/26 10:20:05;;;;;;;6.03;2.20;;;12.50;1.00;;;;;;6280930;22;20144;-84
2023/12/26 10:22:31;;;;;;;18.63;2.50;;;12.60;1.00;;;;;;6279893;22;20375;-82
2023/12/26 10:25:00;;;;;;;6.80;2.33;;;12.70;99.90;;;;;;6276734;22;20382;-83
2023/12/26 10:27:25;;;;;;;6.47;2.20;;;12.90;99.90;;;;;;6271596;22;20157;-81
2023/12/26 10:29:54;;;;;;;10.00;2.20;;;12.90;99.90;;;;;;6272732;22;20375;-82
2023/12/26 10:32:25;;;;;;;6.80;2.23;;;12.90;99.90;;;;;;6275095;22;20157;-82
2023/12/26 10:34:52;;;;;;;8.33;2.10;;;12.80;99.90;;;;;;6273141;22;20407;-83
2023/12/26 10:37:22;;;;;;;7.90;3.30;;;12.70;64.30;;;;;;6274939;22;20760;-82
2023/12/26 10:39:48;;;;;;;6.27;2.20;;;12.60;98.60;;;;;;6272500;22;20375;-82
2023/12/26 10:42:17;;;;;;;7.70;2.67;;;12.50;99.90;;;;;;6248325;22;20387;-81
2023/12/26 10:45:05;;;;;;;6.10;2.00;;;12.50;99.90;;;;;;6249612;22;20448;-82
2023/12/26 10:47:32;;;;;;;5.43;1.57;;;12.50;99.90;;;;;;6276430;22;20380;-81
2023/12/26 10:49:59;;;;;;;6.87;1.47;;;12.30;99.90;;;;;;6276116;22;20382;-81
2023/12/26 10:52:29;;;;;;;7.07;1.90;;;12.20;99.90;;;;;;6276978;22;20379;-81
2023/12/26 10:54:58;;;;;;;6.07;2.27;;;11.90;99.90;;;;;;6248784;22;20449;-81
2023/12/26 10:57:24;;;;;;;6.57;1.87;;;11.70;99.90;;;;;;6275947;22;20724;-81
2023/12/26 13:51:37;;;;;;;12.47;2.57;;;13.00;99.90;;;;;;6273066;22;20370;-80
2023/12/26 13:54:03;;;;;;;9.07;1.97;;;12.60;99.90;;;;;;6275477;22;21292;-80
2023/12/26 13:56:29;;;;;;;12.93;2.47;;;12.40;99.90;;;;;;6278048;22;20372;-79
2023/12/26 13:58:54;;;;;;;8.30;2.30;;;12.20;99.90;;;;;;6277639;22;20925;-81
2023/12/26 14:01:22;;;;;;;7.87;1.77;;;12.10;99.90;;;;;;6274729;22;20184;-80
2023/12/26 14:03:51;;;;;;;12.40;2.17;;;12.10;99.90;;;;;;6276322;22;20688;-80
2023/12/26 14:06:20;;;;;;;12.70;2.33;;;12.10;99.90;;;;;;6276214;22;20382;-80
2023/12/26 14:08:49;;;;;;;14.80;2.70;;;12.00;99.90;;;;;;6275682;22;20391;-80
2023/12/26 14:11:15;;;;;;;8.63;2.70;;;12.00;1.00;;;;;;6270027;22;20407;-81
2023/12/26 14:13:41;;;;;;;7.30;2.23;;;12.00;1.00;;;;;;6271625;22;20863;-79
2023/12/26 14:16:06;;;;;;;10.77;1.80;;;11.90;1.00;;;;;;6274141;22;20371;-81
2023/12/26 14:18:32;;;;;;;8.70;2.70;;;12.00;1.00;;;;;;6280147;22;20161;-80
2023/12/26 14:20:57;;;;;;;8.90;2.03;;;11.80;1.00;;;;;;6280442;22;20177;-81
2023/12/26 14:23:23;;;;;;;9.20;1.90;;;11.80;1.00;;;;;;6279722;22;20198;-79
2023/12/26 14:25:49;;;;;;;6.73;1.87;;;11.70;1.00;;;;;;6280015;22;20153;-81
2023/12/26 14:28:14;;;;;;;7.90;1.93;;;11.60;1.00;;;;;;6281880;22;20149;-81
2023/12/26 14:30:40;;;;;;;9.50;2.13;;;11.60;1.00;;;;;;6278817;22;20174;-80
2023/12/26 14:33:05;;;;;;;11.33;3.60;;;11.60;1.00;;;;;;6278992;22;20171;-80
2023/12/26 14:35:31;;;;;;;11.33;3.30;;;11.60;1.00;;;;;;6275426;22;20183;-80
2023/12/26 14:37:56;;;;;;;6.27;1.83;;;11.70;1.00;;;;;;6276367;22;20145;-80
2023/12/26 14:40:22;;;;;;;5.50;3.10;;;11.60;1.00;;;;;;6274819;22;20173;-79
2023/12/26 14:42:48;;;;;;;7.90;1.80;;;11.50;1.00;;;;;;6274828;22;20156;-79
2023/12/26 14:45:13;;;;;;;10.63;2.40;;;11.50;1.00;;;;;;6276164;22;20160;-80
2023/12/26 14:47:39;;;;;;;5.70;2.43;;;11.50;1.00;;;;;;6277745;22;20879;-80
2023/12/26 14:50:04;;;;;;;10.50;2.90;;;11.40;1.00;;;;;;6276944;22;20433;-80
2023/12/26 14:52:30;;;;;;;8.73;2.20;;;11.40;1.00;;;;;;6278006;22;20160;-80
2023/12/26 14:54:55;;;;;;;9.60;2.60;;;11.30;1.00;;;;;;6281007;22;20172;-80
2023/12/26 14:57:21;;;;;;;8.40;2.63;;;11.30;1.00;;;;;;6281787;22;20173;-81
2023/12/26 14:59:46;;;;;;;10.30;2.27;;;11.30;1.00;;;;;;6280001;22;20175;-80
2023/12/26 15:02:15;;;;;;;16.80;2.90;;;11.20;1.00;;;;;;6256536;22;20179;-81
2023/12/26 15:04:40;;;;;;;6.60;2.30;;;11.20;1.00;;;;;;6281819;22;20145;-81
2023/12/26 15:07:07;;;;;;;8.03;2.00;;;11.20;15.50;;;;;;6283474;22;20399;-80
2023/12/26 15:09:33;;;;;;;10.43;2.53;;;11.10;48.10;;;;;;6279364;22;20228;-81
2023/12/26 15:11:58;;;;;;;8.00;2.10;;;11.10;69.70;;;;;;6276599;22;20399;-81
2023/12/26 15:14:24;;;;;;;21.10;3.40;;;11.10;94.20;;;;;;6277106;22;20185;-81
2023/12/26 15:16:49;;;;;;;12.30;3.70;;;11.10;93.90;;;;;;6276834;22;20149;-80
2023/12/26 15:19:15;;;;;;;12.00;2.17;;;11.10;98.80;;;;;;6277909;22;20148;-81
2023/12/26 15:21:44;;;;;;;12.37;2.40;;;11.10;99.90;;;;;;6249184;22;20176;-80
2023/12/26 15:24:11;;;;;;;9.97;2.63;;;11.00;99.90;;;;;;6276996;22;20163;-80
2023/12/26 15:26:37;;;;;;;11.10;3.33;;;11.10;99.90;;;;;;6276555;22;20372;-81
2023/12/26 15:29:03;;;;;;;13.00;4.77;;;11.00;99.90;;;;;;6276983;22;20909;-80
2023/12/26 15:31:28;;;;;;;12.43;2.07;;;11.00;99.90;;;;;;6277107;22;20859;-80
2023/12/26 15:33:54;;;;;;;12.50;2.33;;;11.00;99.90;;;;;;6275830;22;20407;-80
2023/12/26 15:36:24;;;;;;;10.93;2.10;;;10.90;99.90;;;;;;6278453;22;20155;-79